createdAt,value
2023-05-12T00:03:19.281Z,94.00
2023-05-12T00:07:02.040Z,94.83
2023-05-12T00:10:45.076Z,95.41
2023-05-12T00:14:27.804Z,95.55
2023-05-12T00:18:10.559Z,95.71
2023-05-12T00:21:54.568Z,96.19
2023-05-12T00:25:37.304Z,96.49
2023-05-12T00:29:22.965Z,97.03
2023-05-12T00:33:05.926Z,96.58
2023-05-12T00:36:48.736Z,96.27
2023-05-12T00:40:32.760Z,95.57
2023-05-12T00:44:15.478Z,96.87
2023-05-12T00:47:58.591Z,96.09
2023-05-12T00:51:41.610Z,95.50
2023-05-12T00:55:24.307Z,95.52
2023-05-12T00:59:08.412Z,95.50
2023-05-12T01:02:51.202Z,95.63
2023-05-12T01:06:37.275Z,96.17
2023-05-12T01:10:21.158Z,96.05
2023-05-12T01:14:04.370Z,95.01
2023-05-12T01:17:53.733Z,95.26
2023-05-12T01:21:37.022Z,95.24
2023-05-12T01:25:20.933Z,95.02
2023-05-12T01:29:05.491Z,95.25
2023-05-12T01:32:48.533Z,95.08
2023-05-12T01:36:31.601Z,95.11
2023-05-12T01:40:14.609Z,94.92
2023-05-12T01:43:57.318Z,94.79
2023-05-12T01:47:41.347Z,94.88
2023-05-12T01:51:24.002Z,95.02
2023-05-12T01:55:07.238Z,94.84
2023-05-12T01:58:50.260Z,95.48
2023-05-12T02:02:34.455Z,96.55
2023-05-12T02:06:18.567Z,96.31
2023-05-12T02:10:01.314Z,96.37
2023-05-12T02:13:45.224Z,96.36
2023-05-12T02:17:28.805Z,96.19
2023-05-12T02:21:11.660Z,96.50
2023-05-12T02:24:55.792Z,96.20
2023-05-12T02:28:38.806Z,95.67
2023-05-12T02:32:21.659Z,95.88
2023-05-12T02:36:04.786Z,95.42
2023-05-12T02:39:47.486Z,95.61
2023-05-12T02:43:31.589Z,96.46
2023-05-12T02:47:14.290Z,96.93
2023-05-12T02:50:57.251Z,97.33
2023-05-12T02:54:39.878Z,97.54
2023-05-12T02:58:23.087Z,97.09
2023-05-12T03:02:07.296Z,97.08
2023-05-12T03:05:52.580Z,97.86
2023-05-12T03:09:35.281Z,98.01
2023-05-12T03:13:18.005Z,98.40
2023-05-12T03:17:00.782Z,97.26
2023-05-12T03:20:44.904Z,97.84
2023-05-12T03:24:27.706Z,96.40
2023-05-12T03:28:10.707Z,96.54
2023-05-12T03:31:53.539Z,97.18
2023-05-12T03:35:36.583Z,97.50
2023-05-12T03:39:23.580Z,97.82
2023-05-12T03:43:06.620Z,97.76
2023-05-12T03:46:49.425Z,94.72
2023-05-12T03:50:32.155Z,95.58
2023-05-12T03:54:14.969Z,96.77
2023-05-12T03:57:59.023Z,97.73
2023-05-12T04:01:41.965Z,98.00
2023-05-12T04:05:24.684Z,98.37
2023-05-12T04:09:07.473Z,98.49
2023-05-12T04:12:50.150Z,97.87
2023-05-12T04:16:35.545Z,97.87
2023-05-12T04:20:18.528Z,98.24
2023-05-12T04:24:01.360Z,98.79
2023-05-12T04:27:44.032Z,98.74
2023-05-12T04:31:26.757Z,97.96
2023-05-12T04:35:11.150Z,98.59
2023-05-12T04:38:55.758Z,98.99
2023-05-12T04:42:38.633Z,99.11
2023-05-12T04:46:21.886Z,99.52
2023-05-12T04:50:05.767Z,99.68
2023-05-12T04:53:49.791Z,100.00
2023-05-12T04:57:32.600Z,98.99
2023-05-12T05:01:15.366Z,100.00
2023-05-12T05:04:58.064Z,100.00
2023-05-12T05:08:40.838Z,100.00
2023-05-12T05:12:25.774Z,100.00
2023-05-12T05:16:08.898Z,100.00
2023-05-12T05:19:58.444Z,100.00
2023-05-12T05:23:42.854Z,100.00
2023-05-12T05:27:26.948Z,100.00
2023-05-12T05:31:09.790Z,100.00
2023-05-12T05:34:52.618Z,100.00
2023-05-12T05:38:35.397Z,100.00
2023-05-12T05:42:18.922Z,100.00
2023-05-12T05:46:03.112Z,99.49
2023-05-12T05:49:45.773Z,99.40
2023-05-12T05:53:28.563Z,98.31
2023-05-12T05:57:11.354Z,97.58
2023-05-12T06:00:54.090Z,96.00
2023-05-12T06:04:38.080Z,96.12
2023-05-12T06:08:20.815Z,96.07
2023-05-12T06:12:03.754Z,97.08
2023-05-12T06:15:49.532Z,98.25
2023-05-12T06:19:32.261Z,95.34
2023-05-12T06:23:16.299Z,92.80
2023-05-12T06:26:59.059Z,90.57
2023-05-12T06:30:41.694Z,89.00
2023-05-12T06:34:24.383Z,89.28
2023-05-12T06:38:07.224Z,91.22
2023-05-12T06:41:51.258Z,92.92
2023-05-12T06:45:33.893Z,93.15
2023-05-12T06:49:16.671Z,92.38
2023-05-12T06:52:59.464Z,93.24
2023-05-12T06:56:42.152Z,93.61
2023-05-12T07:00:27.022Z,94.27
2023-05-12T07:04:09.838Z,94.77
2023-05-12T07:07:52.863Z,94.23
2023-05-12T07:11:38.566Z,93.83
2023-05-12T07:15:21.598Z,93.35
2023-05-12T07:19:08.772Z,93.23
2023-05-12T07:22:52.528Z,90.72
2023-05-12T07:26:35.261Z,89.08
2023-05-12T07:30:18.287Z,88.15
2023-05-12T07:34:01.007Z,87.56
2023-05-12T07:37:45.102Z,86.91
2023-05-12T07:41:27.842Z,86.38
2023-05-12T07:45:11.020Z,85.90
2023-05-12T07:48:53.924Z,85.32
2023-05-12T07:52:36.610Z,85.36
2023-05-12T07:56:21.687Z,88.01
2023-05-12T08:00:05.069Z,89.72
2023-05-12T08:03:51.211Z,87.54
2023-05-12T08:07:34.308Z,85.98
2023-05-12T08:11:17.003Z,85.13
2023-05-12T08:15:01.248Z,85.80
2023-05-12T08:18:44.279Z,85.15
2023-05-12T08:22:27.003Z,84.31
2023-05-12T08:26:09.748Z,84.24
2023-05-12T08:29:52.521Z,84.10
2023-05-12T08:33:36.905Z,84.21
2023-05-12T08:37:19.628Z,83.83
2023-05-12T08:41:12.946Z,84.04
2023-05-12T08:44:55.989Z,84.35
2023-05-12T08:48:41.608Z,85.09
2023-05-12T08:52:24.702Z,85.24
2023-05-12T08:59:55.704Z,85.08
2023-05-12T09:03:39.902Z,84.72
2023-05-12T09:07:24.404Z,84.00
2023-05-12T09:11:07.193Z,84.50
2023-05-12T09:15:03.220Z,85.29
2023-05-12T09:18:50.462Z,83.48
2023-05-12T09:22:35.075Z,83.67
2023-05-12T09:26:17.767Z,84.61
2023-05-12T09:30:00.486Z,84.44
2023-05-12T09:33:43.821Z,84.18
2023-05-12T09:37:33.029Z,84.65
2023-05-12T09:41:23.993Z,83.00
2023-05-12T09:45:09.745Z,82.43
2023-05-12T09:48:53.187Z,81.98
2023-05-12T09:52:39.505Z,82.67
2023-05-12T09:56:22.837Z,83.20
2023-05-12T10:00:16.601Z,83.64
2023-05-12T10:04:07.937Z,84.07
2023-05-12T10:07:55.737Z,84.01
2023-05-12T10:11:38.589Z,83.86
2023-05-12T10:15:22.455Z,82.90
2023-05-12T10:19:05.405Z,83.15
2023-05-12T10:22:49.151Z,80.79
2023-05-12T10:26:34.887Z,80.14
2023-05-12T10:30:17.720Z,78.53
2023-05-12T10:34:01.839Z,79.68
2023-05-12T10:37:44.784Z,81.89
2023-05-12T10:41:31.086Z,84.93
2023-05-12T10:45:21.491Z,83.86
2023-05-12T10:49:10.137Z,82.71
2023-05-12T10:52:56.451Z,82.34
2023-05-12T10:56:45.138Z,81.15
2023-05-12T11:00:30.093Z,78.02
2023-05-12T11:04:14.802Z,77.82
2023-05-12T11:07:58.808Z,78.33
2023-05-12T11:11:41.783Z,78.26
2023-05-12T11:15:24.815Z,77.99
2023-05-12T11:19:09.028Z,79.28
2023-05-12T11:22:51.914Z,78.12
2023-05-12T11:26:35.124Z,78.31
2023-05-12T11:30:18.051Z,75.27
2023-05-12T11:34:11.926Z,72.42
2023-05-12T11:37:59.084Z,69.94
2023-05-12T11:41:41.863Z,66.68
2023-05-12T11:45:27.033Z,66.85
2023-05-12T11:49:12.656Z,67.94
2023-05-12T11:52:57.771Z,68.25
2023-05-12T11:56:40.428Z,69.53
2023-05-12T12:00:28.816Z,69.90
2023-05-12T12:04:11.557Z,70.72
2023-05-12T12:08:07.689Z,70.99
2023-05-12T12:11:50.508Z,69.44
2023-05-12T12:15:33.412Z,68.93
2023-05-12T12:19:16.204Z,68.30
2023-05-12T12:22:59.030Z,67.70
2023-05-12T12:26:43.165Z,68.56
2023-05-12T12:30:26.021Z,68.41
2023-05-12T12:34:08.731Z,69.34
2023-05-12T12:37:52.331Z,68.83
2023-05-12T12:41:35.182Z,69.08
2023-05-12T12:45:20.494Z,69.31
2023-05-12T12:49:03.549Z,69.00
2023-05-12T12:52:46.340Z,70.29
2023-05-12T12:56:29.868Z,69.71
2023-05-12T13:00:13.805Z,70.63
2023-05-12T13:04:00.247Z,69.24
2023-05-12T13:07:43.078Z,69.62
2023-05-12T13:11:26.213Z,69.24
2023-05-12T13:15:10.446Z,68.14
2023-05-12T13:18:53.132Z,67.49
2023-05-12T13:22:37.439Z,66.54
2023-05-12T13:26:20.146Z,67.03
2023-05-12T13:30:04.478Z,67.33
2023-05-12T13:33:47.592Z,67.81
2023-05-12T13:37:30.420Z,67.25
2023-05-12T13:41:14.490Z,67.49
2023-05-12T13:44:57.594Z,67.85
2023-05-12T13:48:40.217Z,68.26
2023-05-12T13:52:23.010Z,68.52
2023-05-12T13:56:06.082Z,67.22
2023-05-12T13:59:50.488Z,66.68
2023-05-12T14:03:33.180Z,67.08
2023-05-12T14:07:16.180Z,66.01
2023-05-12T14:11:01.710Z,66.10
2023-05-12T14:14:49.643Z,66.12
2023-05-12T14:18:33.742Z,66.29
2023-05-12T14:22:28.267Z,65.68
2023-05-12T14:26:10.953Z,65.73
2023-05-12T14:29:53.853Z,66.90
2023-05-12T14:33:37.900Z,67.57
2023-05-12T14:37:20.542Z,68.33
2023-05-12T14:41:03.342Z,67.46
2023-05-12T14:44:46.436Z,68.35
2023-05-12T14:48:29.423Z,68.64
2023-05-12T14:52:17.086Z,69.26
2023-05-12T14:55:59.897Z,68.94
2023-05-12T14:59:43.290Z,69.11
2023-05-12T15:03:26.723Z,69.61
2023-05-12T15:07:09.694Z,69.68
2023-05-12T15:10:53.879Z,70.17
2023-05-12T15:14:36.650Z,71.30
2023-05-12T15:18:19.441Z,72.24
2023-05-12T15:22:02.203Z,72.63
2023-05-12T15:25:45.127Z,72.61
2023-05-12T15:29:29.324Z,73.36
2023-05-12T15:33:12.182Z,73.89
2023-05-12T15:36:54.942Z,73.78
2023-05-12T15:40:38.289Z,74.15
2023-05-12T15:44:20.966Z,74.22
2023-05-12T15:48:07.362Z,74.54
2023-05-12T15:51:52.068Z,74.09
2023-05-12T15:55:34.864Z,74.16
2023-05-12T15:59:18.319Z,75.01
2023-05-12T16:03:01.996Z,74.50
2023-05-12T16:06:46.299Z,74.77
2023-05-12T16:10:28.945Z,75.82
2023-05-12T16:14:11.640Z,75.66
2023-05-12T16:17:54.430Z,76.46
2023-05-12T16:21:37.141Z,76.15
2023-05-12T16:25:21.535Z,76.60
2023-05-12T16:29:04.624Z,76.03
2023-05-12T16:32:47.808Z,75.25
2023-05-12T16:36:32.097Z,74.69
2023-05-12T16:40:15.432Z,74.76
2023-05-12T16:44:00.712Z,75.23
2023-05-12T16:47:43.608Z,75.35
2023-05-12T16:51:30.492Z,75.89
2023-05-12T16:55:13.271Z,76.21
2023-05-12T16:58:56.244Z,76.36
2023-05-12T17:02:40.817Z,76.21
2023-05-12T17:06:23.578Z,75.81
2023-05-12T17:10:06.910Z,76.13
2023-05-12T17:13:49.824Z,76.79
2023-05-12T17:17:32.492Z,77.32
2023-05-12T17:21:16.637Z,76.06
2023-05-12T17:24:59.445Z,76.46
2023-05-12T17:28:42.316Z,77.13
2023-05-12T17:32:24.972Z,77.13
2023-05-12T17:36:12.790Z,77.13
2023-05-12T17:39:57.162Z,77.60
2023-05-12T17:43:39.925Z,77.94
2023-05-12T17:47:24.412Z,78.07
2023-05-12T17:51:07.690Z,78.35
2023-05-12T17:54:50.610Z,78.01
2023-05-12T17:58:34.754Z,78.20
2023-05-12T18:02:17.744Z,78.37
2023-05-12T18:06:00.699Z,77.14
2023-05-12T18:09:43.498Z,76.94
2023-05-12T18:13:26.201Z,76.83
2023-05-12T18:17:10.254Z,76.79
2023-05-12T18:20:53.046Z,77.34
2023-05-12T18:24:35.830Z,77.83
2023-05-12T18:28:18.490Z,77.92
2023-05-12T18:32:01.175Z,78.70
2023-05-12T18:35:45.244Z,79.79
2023-05-12T18:39:27.962Z,80.31
2023-05-12T18:43:10.737Z,80.08
2023-05-12T18:46:53.566Z,79.99
2023-05-12T18:50:36.440Z,80.28
2023-05-12T18:54:20.903Z,80.15
2023-05-12T18:58:03.805Z,79.58
2023-05-12T19:01:48.964Z,79.93
2023-05-12T19:05:32.071Z,80.16
2023-05-12T19:09:17.559Z,79.46
2023-05-12T19:13:01.837Z,79.16
2023-05-12T19:16:46.528Z,78.26
2023-05-12T19:20:29.440Z,78.72
2023-05-12T19:24:12.503Z,78.30
2023-05-12T19:27:55.276Z,77.45
2023-05-12T19:31:39.420Z,77.38
2023-05-12T19:35:22.916Z,77.17
2023-05-12T19:39:05.912Z,77.60
2023-05-12T19:42:48.573Z,78.08
2023-05-12T19:46:33.267Z,77.64
2023-05-12T19:50:18.707Z,77.37
2023-05-12T19:54:01.959Z,76.84
2023-05-12T19:57:44.715Z,75.87
2023-05-12T20:01:27.758Z,75.48
2023-05-12T20:05:11.073Z,75.27
2023-05-12T20:08:55.183Z,75.17
2023-05-12T20:12:37.960Z,75.44
2023-05-12T20:16:20.624Z,75.03
2023-05-12T20:20:04.216Z,75.34
2023-05-12T20:23:46.915Z,75.76
2023-05-12T20:27:31.208Z,76.03
2023-05-12T20:31:14.029Z,75.42
2023-05-12T20:34:57.200Z,75.38
2023-05-12T20:38:39.865Z,75.42
2023-05-12T20:42:22.665Z,76.55
2023-05-12T20:46:07.232Z,76.95
2023-05-12T20:49:52.880Z,76.69
2023-05-12T20:53:36.548Z,75.61
2023-05-12T20:57:19.285Z,75.79
2023-05-12T21:01:02.045Z,75.86
2023-05-12T21:04:46.260Z,76.17
2023-05-12T21:08:28.911Z,76.07
2023-05-12T21:12:11.640Z,75.85
2023-05-12T21:15:57.765Z,76.25
2023-05-12T21:19:41.859Z,76.48
2023-05-12T21:23:27.279Z,77.67
2023-05-12T21:27:10.179Z,77.89
2023-05-12T21:30:52.935Z,77.14
2023-05-12T21:34:36.135Z,76.63
2023-05-12T21:38:20.935Z,76.34
2023-05-12T21:42:05.625Z,76.43
2023-05-12T21:45:48.393Z,75.94
2023-05-12T21:49:31.147Z,76.12
2023-05-12T21:53:14.946Z,75.39
2023-05-12T21:56:58.101Z,76.11
2023-05-12T22:00:42.177Z,76.55
2023-05-12T22:04:24.901Z,76.66
2023-05-12T22:08:07.596Z,75.80
2023-05-12T22:11:50.521Z,74.96
2023-05-12T22:15:34.102Z,74.22
2023-05-12T22:19:18.250Z,74.28
2023-05-12T22:23:01.076Z,74.54
2023-05-12T22:26:43.803Z,74.58
2023-05-12T22:30:26.612Z,74.70
2023-05-12T22:34:09.416Z,74.60
2023-05-12T22:37:53.689Z,74.60
2023-05-12T22:41:36.509Z,74.76
2023-05-12T22:45:19.247Z,74.66
2023-05-12T22:49:02.073Z,74.93
2023-05-12T22:52:45.019Z,75.21
2023-05-12T22:56:29.113Z,75.13
2023-05-12T23:00:12.686Z,74.98
2023-05-12T23:03:55.356Z,74.90
2023-05-12T23:07:38.111Z,75.13
2023-05-12T23:11:21.134Z,75.31
2023-05-12T23:15:05.441Z,75.26
2023-05-12T23:18:48.295Z,75.12
2023-05-12T23:22:31.168Z,75.22
2023-05-12T23:26:13.896Z,75.18
2023-05-12T23:29:56.752Z,75.09
2023-05-12T23:33:41.163Z,75.13
2023-05-12T23:37:24.537Z,75.65
2023-05-12T23:41:07.325Z,75.71
2023-05-12T23:44:49.998Z,76.13
2023-05-12T23:48:32.840Z,75.89
2023-05-12T23:52:16.922Z,76.07
2023-05-12T23:55:59.565Z,76.00
2023-05-12T23:59:42.267Z,76.17
